Time;durP1;ratioP1;P1;durP2;ratioP2;P2;SDS_P1;SDS_P2;PMS_P1;PMS_P2;Temp;Humidity;BMP_temperature;BMP_pressure;BME280_temperature;BME280_humidity;BME280_pressure;Samples;Min_cycle;Max_cycle;Signal;HPM_P1;HPM_P2
2020/12/20 00:00:28;;;;;;;9.13;5.70;;;;;;;;;;5014754;28;20677;-74
2020/12/20 00:02:54;;;;;;;8.95;5.50;;;;;;;;;;5019795;28;20190;-73
2020/12/20 00:05:21;;;;;;;8.07;5.93;;;;;;;;;;5017461;28;20205;-73
2020/12/20 00:07:47;;;;;;;11.47;5.50;;;;;;;;;;5022008;28;20213;-74
2020/12/20 00:10:13;;;;;;;9.20;5.10;;;;;;;;;;5018112;28;20292;-72
2020/12/20 00:12:39;;;;;;;7.80;5.00;;;;;;;;;;5018479;28;20230;-72
2020/12/20 00:15:05;;;;;;;8.20;5.57;;;;;;;;;;5015324;28;20660;-73
2020/12/20 00:17:30;;;;;;;8.03;5.23;;;;;;;;;;5018421;28;20278;-74
2020/12/20 00:19:56;;;;;;;6.63;5.00;;;;;;;;;;5023310;28;20612;-73
2020/12/20 00:22:21;;;;;;;9.40;4.80;;;;;;;;;;5014650;28;20230;-73
2020/12/20 00:24:46;;;;;;;9.67;5.13;;;;;;;;;;5025329;28;20296;-73
2020/12/20 00:27:12;;;;;;;9.87;4.40;;;;;;;;;;5014808;28;20198;-73
2020/12/20 00:29:38;;;;;;;10.80;5.07;;;;;;;;;;5025759;28;20178;-72
2020/12/20 00:32:06;;;;;;;9.33;5.00;;;;;;;;;;5016636;28;20190;-72
2020/12/20 00:34:32;;;;;;;7.43;4.50;;;;;;;;;;5022258;28;20233;-72
2020/12/20 00:36:58;;;;;;;10.80;4.80;;;;;;;;;;5018263;28;20580;-73
2020/12/20 00:39:24;;;;;;;9.30;4.50;;;;;;;;;;5028351;28;20325;-73
2020/12/20 00:41:54;;;;;;;7.17;4.90;;;;;;;;;;5016363;28;20194;-73
2020/12/20 00:44:20;;;;;;;9.33;4.70;;;;;;;;;;5024259;28;20205;-73
2020/12/20 00:46:46;;;;;;;10.63;5.27;;;;;;;;;;5016574;28;20174;-73
2020/12/20 00:49:11;;;;;;;8.77;4.70;;;;;;;;;;5028121;28;20185;-73
2020/12/20 00:51:36;;;;;;;8.67;4.40;;;;;;;;;;5023837;28;20190;-73
2020/12/20 00:54:02;;;;;;;9.30;4.87;;;;;;;;;;5022384;28;20209;-73
2020/12/20 00:56:27;;;;;;;9.23;4.43;;;;;;;;;;5026452;28;20260;-73
2020/12/20 00:58:53;;;;;;;8.23;4.38;;;;;;;;;;5023289;28;20201;-74
2020/12/20 01:01:20;;;;;;;8.23;4.50;;;;;;;;;;5025178;28;20251;-73
2020/12/20 01:03:45;;;;;;;9.73;4.70;;;;;;;;;;5005414;28;20653;-74
2020/12/20 01:06:23;;;;;;;10.87;5.03;;;;;;;;;;5026894;28;20191;-74
2020/12/20 01:08:49;;;;;;;9.93;4.35;;;;;;;;;;5017181;28;20189;-73
2020/12/20 01:11:14;;;;;;;9.38;4.30;;;;;;;;;;5028258;28;20201;-73
2020/12/20 01:13:44;;;;;;;8.57;5.03;;;;;;;;;;5017385;28;20217;-73
2020/12/20 01:16:22;;;;;;;8.93;4.33;;;;;;;;;;5026468;28;20178;-73
2020/12/20 01:18:48;;;;;;;8.65;4.30;;;;;;;;;;5034033;28;20200;-74
2020/12/20 01:21:14;;;;;;;10.53;5.00;;;;;;;;;;5027275;28;20181;-73
2020/12/20 01:23:39;;;;;;;11.10;5.28;;;;;;;;;;5018568;28;20186;-73
2020/12/20 01:26:05;;;;;;;10.20;4.70;;;;;;;;;;5027471;28;20301;-73
2020/12/20 01:28:32;;;;;;;7.93;4.50;;;;;;;;;;5026879;28;20585;-74
2020/12/20 01:30:57;;;;;;;9.47;5.00;;;;;;;;;;5018519;28;20251;-73
2020/12/20 01:33:23;;;;;;;8.57;4.60;;;;;;;;;;5021607;28;20277;-73
2020/12/20 01:35:49;;;;;;;9.13;4.57;;;;;;;;;;5032949;28;20589;-73
2020/12/20 01:38:14;;;;;;;9.45;4.88;;;;;;;;;;5030194;28;20204;-72
2020/12/20 01:40:39;;;;;;;12.60;5.03;;;;;;;;;;5016891;28;20194;-73
2020/12/20 01:43:05;;;;;;;11.03;4.57;;;;;;;;;;5029261;28;20185;-73
2020/12/20 01:45:31;;;;;;;9.40;4.70;;;;;;;;;;5019970;28;20189;-72
2020/12/20 01:47:56;;;;;;;7.87;4.97;;;;;;;;;;5026568;28;20233;-73
2020/12/20 01:50:22;;;;;;;10.20;4.70;;;;;;;;;;5017372;28;20193;-72
2020/12/20 01:52:48;;;;;;;6.90;4.83;;;;;;;;;;5023305;28;20396;-73
2020/12/20 01:55:16;;;;;;;9.87;5.33;;;;;;;;;;5018492;28;20560;-73
2020/12/20 01:57:42;;;;;;;11.20;5.13;;;;;;;;;;5023293;28;20329;-73
2020/12/20 02:00:08;;;;;;;8.83;5.07;;;;;;;;;;5027351;28;20702;-74
2020/12/20 02:02:33;;;;;;;11.83;5.00;;;;;;;;;;5016205;28;20201;-73
2020/12/20 02:04:59;;;;;;;6.83;4.70;;;;;;;;;;5028040;28;20232;-74
2020/12/20 02:07:24;;;;;;;8.77;5.10;;;;;;;;;;5017578;28;20219;-74
2020/12/20 02:09:50;;;;;;;6.57;4.33;;;;;;;;;;5026617;28;20213;-74
2020/12/20 02:12:15;;;;;;;7.13;4.27;;;;;;;;;;5017509;28;20336;-73
2020/12/20 02:14:40;;;;;;;8.47;4.70;;;;;;;;;;5024673;28;20592;-74
2020/12/20 02:17:06;;;;;;;11.57;5.63;;;;;;;;;;5014570;28;20782;-73
2020/12/20 02:19:32;;;;;;;12.97;4.97;;;;;;;;;;5027468;28;20188;-73
2020/12/20 02:21:57;;;;;;;8.33;4.57;;;;;;;;;;5016353;28;20542;-74
2020/12/20 02:24:23;;;;;;;8.73;5.00;;;;;;;;;;5025422;28;20547;-73
2020/12/20 02:26:48;;;;;;;14.17;5.37;;;;;;;;;;5017824;28;20629;-73
2020/12/20 02:29:13;;;;;;;7.33;4.87;;;;;;;;;;5028588;28;20704;-74
2020/12/20 02:31:39;;;;;;;7.57;4.57;;;;;;;;;;5024596;28;20557;-73
2020/12/20 02:34:06;;;;;;;11.17;4.80;;;;;;;;;;5018597;28;20222;-74
2020/12/20 02:36:31;;;;;;;8.67;5.07;;;;;;;;;;5025177;28;20572;-73
2020/12/20 02:38:57;;;;;;;7.60;5.03;;;;;;;;;;5018421;28;20200;-73
2020/12/20 02:41:22;;;;;;;8.00;4.83;;;;;;;;;;5027937;28;20282;-73
2020/12/20 02:43:47;;;;;;;11.70;5.20;;;;;;;;;;5019180;28;20190;-73
2020/12/20 02:46:13;;;;;;;11.17;5.30;;;;;;;;;;5028047;28;20177;-73
2020/12/20 02:48:39;;;;;;;9.90;4.67;;;;;;;;;;5016710;28;20190;-73
2020/12/20 02:51:05;;;;;;;12.30;5.27;;;;;;;;;;5022526;28;20224;-73
2020/12/20 02:53:31;;;;;;;11.57;5.20;;;;;;;;;;5016268;28;20240;-73
2020/12/20 02:55:57;;;;;;;7.20;5.10;;;;;;;;;;5023166;28;20676;-73
2020/12/20 02:58:22;;;;;;;14.70;5.73;;;;;;;;;;5018685;28;20177;-73
2020/12/20 03:00:48;;;;;;;9.53;5.37;;;;;;;;;;5025512;28;20224;-73
2020/12/20 03:03:13;;;;;;;9.20;5.07;;;;;;;;;;5027374;28;20190;-73
2020/12/20 03:05:38;;;;;;;9.23;5.37;;;;;;;;;;5015142;28;20202;-73
2020/12/20 03:08:04;;;;;;;13.77;5.40;;;;;;;;;;5027293;28;20264;-73
2020/12/20 03:10:29;;;;;;;11.13;5.60;;;;;;;;;;5014264;28;20188;-73
2020/12/20 03:12:55;;;;;;;9.73;5.57;;;;;;;;;;5028458;28;20322;-73
2020/12/20 03:15:20;;;;;;;8.07;5.10;;;;;;;;;;5015853;28;20189;-73
2020/12/20 03:17:45;;;;;;;12.73;6.00;;;;;;;;;;5035990;28;20201;-73
2020/12/20 03:20:11;;;;;;;10.93;6.20;;;;;;;;;;5012652;28;20186;-73
2020/12/20 03:22:36;;;;;;;10.63;5.27;;;;;;;;;;5026119;28;20601;-73
2020/12/20 03:25:03;;;;;;;8.00;5.37;;;;;;;;;;5017008;28;20189;-73
2020/12/20 03:27:28;;;;;;;9.93;5.67;;;;;;;;;;5027008;28;20182;-73
2020/12/20 03:29:53;;;;;;;11.37;6.07;;;;;;;;;;5018563;28;20193;-73
2020/12/20 03:32:19;;;;;;;17.90;6.33;;;;;;;;;;5024280;28;20208;-73
2020/12/20 03:34:44;;;;;;;11.00;5.77;;;;;;;;;;5023807;28;20221;-73
2020/12/20 03:37:10;;;;;;;14.80;5.73;;;;;;;;;;5014844;28;20274;-73
2020/12/20 03:39:35;;;;;;;9.43;4.97;;;;;;;;;;5021874;28;20186;-73
2020/12/20 03:42:00;;;;;;;12.23;5.57;;;;;;;;;;5013706;28;20198;-73
2020/12/20 03:44:26;;;;;;;8.87;5.93;;;;;;;;;;5024455;28;20232;-73
2020/12/20 03:46:51;;;;;;;11.53;5.97;;;;;;;;;;5017234;28;20205;-73
2020/12/20 03:49:16;;;;;;;11.97;5.70;;;;;;;;;;5025371;28;20190;-73
2020/12/20 03:51:42;;;;;;;11.40;6.00;;;;;;;;;;5015383;28;20236;-73
2020/12/20 03:54:07;;;;;;;13.03;6.50;;;;;;;;;;5020731;28;20205;-73
2020/12/20 03:56:33;;;;;;;11.57;5.93;;;;;;;;;;5020550;28;20606;-73
2020/12/20 03:58:59;;;;;;;10.63;6.03;;;;;;;;;;5020858;28;20186;-72
2020/12/20 04:01:24;;;;;;;10.77;5.93;;;;;;;;;;5021810;28;20265;-74
2020/12/20 04:03:50;;;;;;;11.87;6.20;;;;;;;;;;5028308;28;20190;-73
2020/12/20 04:06:15;;;;;;;13.57;6.30;;;;;;;;;;5026605;28;20663;-73
2020/12/20 04:08:41;;;;;;;16.93;6.50;;;;;;;;;;5018260;28;20251;-73
2020/12/20 04:11:06;;;;;;;12.53;5.27;;;;;;;;;;5030468;28;20185;-73
2020/12/20 04:13:32;;;;;;;9.67;6.20;;;;;;;;;;5021156;28;20233;-73
2020/12/20 04:16:05;;;;;;;12.40;7.07;;;;;;;;;;5031112;28;20197;-73
2020/12/20 04:18:31;;;;;;;14.87;6.10;;;;;;;;;;5019226;28;20219;-73
2020/12/20 04:20:56;;;;;;;13.03;7.10;;;;;;;;;;5032165;28;20261;-73
2020/12/20 04:23:21;;;;;;;12.20;6.00;;;;;;;;;;5021529;28;20277;-73
2020/12/20 04:25:47;;;;;;;13.33;6.60;;;;;;;;;;5029960;28;20250;-73
2020/12/20 04:28:12;;;;;;;13.53;6.43;;;;;;;;;;5021256;28;20190;-73
2020/12/20 04:30:37;;;;;;;12.67;6.50;;;;;;;;;;5028918;28;20312;-73
2020/12/20 04:33:03;;;;;;;12.43;5.93;;;;;;;;;;5019098;28;20240;-73
2020/12/20 04:35:29;;;;;;;15.13;6.20;;;;;;;;;;5028008;28;20594;-73
2020/12/20 04:37:54;;;;;;;12.00;5.83;;;;;;;;;;5027039;28;20186;-73
2020/12/20 04:40:21;;;;;;;13.20;6.53;;;;;;;;;;5019379;28;20950;-73
2020/12/20 04:42:46;;;;;;;13.80;6.87;;;;;;;;;;5026734;28;20189;-73
2020/12/20 04:45:12;;;;;;;12.03;6.10;;;;;;;;;;5021618;28;20186;-72
2020/12/20 04:47:39;;;;;;;14.60;6.10;;;;;;;;;;5023830;28;20235;-72
2020/12/20 04:50:05;;;;;;;14.27;6.47;;;;;;;;;;5020160;28;20639;-72
2020/12/20 04:52:31;;;;;;;9.07;5.83;;;;;;;;;;5026271;28;20234;-71
2020/12/20 04:54:58;;;;;;;11.50;6.60;;;;;;;;;;5016776;28;20186;-71
2020/12/20 04:57:23;;;;;;;12.97;6.27;;;;;;;;;;5025994;28;20196;-73
2020/12/20 04:59:49;;;;;;;10.87;6.40;;;;;;;;;;5019107;28;20190;-74
2020/12/20 05:02:15;;;;;;;14.50;6.17;;;;;;;;;;5028029;28;20672;-74
2020/12/20 05:04:40;;;;;;;12.40;6.20;;;;;;;;;;5016458;28;20198;-74
2020/12/20 05:07:06;;;;;;;14.93;6.43;;;;;;;;;;5024682;28;20206;-74
2020/12/20 05:09:45;;;;;;;10.87;5.67;;;;;;;;;;5029724;28;20190;-74
2020/12/20 05:12:26;;;;;;;15.50;5.97;;;;;;;;;;5025659;28;20197;-74
2020/12/20 05:14:51;;;;;;;12.30;6.00;;;;;;;;;;5028518;28;20178;-74
2020/12/20 05:17:17;;;;;;;14.33;5.93;;;;;;;;;;5016090;28;20182;-74
2020/12/20 05:19:43;;;;;;;14.97;6.33;;;;;;;;;;5030160;28;20184;-74
2020/12/20 05:22:19;;;;;;;14.07;6.90;;;;;;;;;;5014342;28;20661;-74
2020/12/20 05:24:45;;;;;;;14.67;6.47;;;;;;;;;;5018623;28;20653;-74
2020/12/20 05:27:27;;;;;;;15.07;6.60;;;;;;;;;;5015523;28;20178;-73
2020/12/20 05:29:54;;;;;;;14.90;6.30;;;;;;;;;;5026477;28;20535;-74
2020/12/20 05:32:27;;;;;;;17.07;6.27;;;;;;;;;;5018200;28;20186;-74
2020/12/20 05:35:00;;;;;;;15.83;7.10;;;;;;;;;;5028099;28;20583;-74
2020/12/20 05:37:30;;;;;;;10.95;6.55;;;;;;;;;;5017725;28;20186;-74
2020/12/20 05:39:56;;;;;;;17.43;7.23;;;;;;;;;;5028733;28;20206;-74
2020/12/20 05:42:23;;;;;;;14.90;7.47;;;;;;;;;;5018319;28;20659;-74
2020/12/20 05:44:49;;;;;;;14.77;6.60;;;;;;;;;;5018110;28;20204;-74
2020/12/20 05:47:23;;;;;;;13.60;7.87;;;;;;;;;;5020348;28;20217;-74
2020/12/20 05:49:48;;;;;;;14.67;7.47;;;;;;;;;;5027102;28;20198;-74
2020/12/20 05:52:14;;;;;;;11.80;6.70;;;;;;;;;;5033865;28;20186;-74
2020/12/20 05:54:41;;;;;;;15.57;7.60;;;;;;;;;;5027433;28;20618;-74
2020/12/20 05:57:11;;;;;;;18.30;7.57;;;;;;;;;;5017630;28;20178;-73
2020/12/20 05:59:38;;;;;;;14.73;7.57;;;;;;;;;;5025808;28;20186;-74
2020/12/20 06:02:04;;;;;;;13.17;7.40;;;;;;;;;;5018674;28;20206;-73
2020/12/20 06:04:31;;;;;;;14.63;7.13;;;;;;;;;;5011576;28;20536;-74
2020/12/20 06:06:58;;;;;;;13.43;7.30;;;;;;;;;;5019638;28;20202;-74
2020/12/20 06:09:27;;;;;;;12.60;7.37;;;;;;;;;;5011793;28;20599;-74
2020/12/20 06:11:58;;;;;;;14.57;7.80;;;;;;;;;;5019404;28;20178;-74
2020/12/20 06:14:27;;;;;;;17.37;8.20;;;;;;;;;;5012496;28;20255;-73
2020/12/20 06:17:11;;;;;;;14.13;7.47;;;;;;;;;;5018794;28;20270;-73
2020/12/20 06:19:58;;;;;;;18.13;8.40;;;;;;;;;;5013828;28;20220;-74
2020/12/20 06:22:28;;;;;;;17.10;8.27;;;;;;;;;;5011357;28;20209;-74
2020/12/20 06:25:04;;;;;;;18.97;7.93;;;;;;;;;;5014467;28;20648;-74
2020/12/20 06:27:32;;;;;;;14.63;8.05;;;;;;;;;;5016871;28;20195;-74
2020/12/20 06:29:59;;;;;;;13.53;8.03;;;;;;;;;;5006527;28;20183;-74
2020/12/20 06:32:51;;;;;;;18.50;8.97;;;;;;;;;;5031281;28;20230;-73
2020/12/20 06:35:25;;;;;;;14.43;8.60;;;;;;;;;;5013716;28;20569;-73
2020/12/20 06:37:51;;;;;;;19.37;8.73;;;;;;;;;;5020240;28;20206;-73
2020/12/20 06:40:41;;;;;;;13.97;8.47;;;;;;;;;;5015916;28;20222;-73
2020/12/20 06:43:08;;;;;;;16.23;8.50;;;;;;;;;;5022058;28;20680;-73
2020/12/20 06:45:42;;;;;;;17.47;8.90;;;;;;;;;;5029094;28;20679;-73
2020/12/20 06:48:09;;;;;;;18.27;8.40;;;;;;;;;;5033151;28;20192;-73
2020/12/20 06:50:47;;;;;;;16.80;9.27;;;;;;;;;;5011373;28;20193;-74
2020/12/20 06:53:15;;;;;;;17.90;8.77;;;;;;;;;;5017543;28;20590;-74
2020/12/20 06:55:41;;;;;;;21.23;8.77;;;;;;;;;;5008947;28;20185;-74
2020/12/20 06:58:10;;;;;;;16.30;9.20;;;;;;;;;;4324582;28;10000863;-74
2020/12/20 07:00:54;;;;;;;19.03;7.90;;;;;;;;;;5002013;28;20641;-74
2020/12/20 07:03:30;;;;;;;15.00;8.83;;;;;;;;;;5019523;28;20178;-74
2020/12/20 07:05:56;;;;;;;17.60;9.10;;;;;;;;;;5003753;28;20211;-74
2020/12/20 07:08:25;;;;;;;17.47;9.07;;;;;;;;;;5015747;28;20220;-74
2020/12/20 07:10:53;;;;;;;16.07;8.53;;;;;;;;;;5009874;28;20194;-74
2020/12/20 07:13:43;;;;;;;18.13;9.30;;;;;;;;;;5015828;28;20665;-74
2020/12/20 07:16:13;;;;;;;16.27;8.23;;;;;;;;;;5005564;28;20202;-74
2020/12/20 07:18:52;;;;;;;17.20;8.00;;;;;;;;;;5018512;28;20202;-74
2020/12/20 07:21:20;;;;;;;16.17;7.83;;;;;;;;;;5008267;28;20247;-74
2020/12/20 07:23:48;;;;;;;16.10;7.30;;;;;;;;;;5037540;28;20590;-74
2020/12/20 07:26:14;;;;;;;16.87;7.07;;;;;;;;;;5008365;28;20252;-74
2020/12/20 07:28:39;;;;;;;13.23;7.63;;;;;;;;;;5013901;28;20657;-75
2020/12/20 07:31:12;;;;;;;14.30;7.45;;;;;;;;;;5018168;28;20236;-74
2020/12/20 07:33:38;;;;;;;15.20;7.38;;;;;;;;;;5013326;28;20210;-74
2020/12/20 07:36:04;;;;;;;14.50;7.63;;;;;;;;;;5021300;28;20202;-73
2020/12/20 07:38:29;;;;;;;15.80;7.83;;;;;;;;;;5014328;28;20193;-74
2020/12/20 07:40:55;;;;;;;15.53;7.50;;;;;;;;;;5020678;28;20193;-73
2020/12/20 07:43:20;;;;;;;16.10;7.60;;;;;;;;;;5015906;28;20182;-74
2020/12/20 07:45:59;;;;;;;13.17;7.30;;;;;;;;;;5019466;28;20204;-74
2020/12/20 07:48:25;;;;;;;22.43;8.00;;;;;;;;;;5012834;28;20283;-74
2020/12/20 07:50:52;;;;;;;15.43;8.03;;;;;;;;;;5021869;28;20190;-73
2020/12/20 07:53:18;;;;;;;14.33;7.90;;;;;;;;;;5006788;28;20256;-74
2020/12/20 07:55:48;;;;;;;17.23;8.33;;;;;;;;;;5017532;28;20201;-73
2020/12/20 07:58:14;;;;;;;16.30;8.00;;;;;;;;;;5009395;28;20193;-74
2020/12/20 08:00:44;;;;;;;16.70;7.77;;;;;;;;;;5020996;28;20182;-74
2020/12/20 08:03:13;;;;;;;15.77;7.67;;;;;;;;;;5014981;28;20553;-74
2020/12/20 08:05:38;;;;;;;16.60;7.20;;;;;;;;;;5020577;28;20281;-74
2020/12/20 08:08:04;;;;;;;19.43;8.40;;;;;;;;;;5019640;28;20232;-74
2020/12/20 08:10:29;;;;;;;13.73;7.63;;;;;;;;;;5015862;28;20197;-73
2020/12/20 08:12:54;;;;;;;14.00;7.80;;;;;;;;;;5029075;28;20630;-73
2020/12/20 08:15:20;;;;;;;15.23;7.13;;;;;;;;;;5015995;28;20198;-73
2020/12/20 08:17:46;;;;;;;13.93;6.90;;;;;;;;;;5028170;28;20287;-74
2020/12/20 08:20:12;;;;;;;16.47;7.50;;;;;;;;;;5012736;28;20268;-73
2020/12/20 08:22:38;;;;;;;15.13;6.90;;;;;;;;;;5015664;28;20209;-74
2020/12/20 08:25:09;;;;;;;12.20;6.27;;;;;;;;;;5016947;28;20194;-74
2020/12/20 08:27:36;;;;;;;13.43;6.47;;;;;;;;;;5022983;28;20193;-73
2020/12/20 08:30:05;;;;;;;10.33;6.60;;;;;;;;;;5016576;28;20190;-74
2020/12/20 08:32:40;;;;;;;11.93;6.70;;;;;;;;;;5012642;28;20217;-73
2020/12/20 08:35:14;;;;;;;12.07;6.73;;;;;;;;;;5013764;28;20655;-74
2020/12/20 08:37:40;;;;;;;14.87;6.83;;;;;;;;;;5018505;28;20649;-74
2020/12/20 08:40:13;;;;;;;15.07;6.40;;;;;;;;;;5013028;28;20201;-73
2020/12/20 08:42:39;;;;;;;11.90;6.60;;;;;;;;;;5024018;28;20766;-74
2020/12/20 08:45:18;;;;;;;9.70;5.60;;;;;;;;;;5013224;28;20174;-73
2020/12/20 08:47:44;;;;;;;12.67;5.80;;;;;;;;;;5013719;28;20217;-74
2020/12/20 08:50:11;;;;;;;13.77;5.53;;;;;;;;;;5022516;28;20188;-74
2020/12/20 08:52:36;;;;;;;10.73;5.47;;;;;;;;;;5013682;28;20206;-74
2020/12/20 08:55:03;;;;;;;16.27;5.43;;;;;;;;;;5024113;28;20239;-74
2020/12/20 08:57:30;;;;;;;11.03;5.63;;;;;;;;;;5015832;28;20549;-74
2020/12/20 09:00:13;;;;;;;10.10;5.30;;;;;;;;;;5022377;28;20198;-73
2020/12/20 09:02:39;;;;;;;12.67;5.10;;;;;;;;;;5011106;28;20178;-73
2020/12/20 09:05:13;;;;;;;13.00;5.33;;;;;;;;;;5014760;28;20536;-73
2020/12/20 09:07:41;;;;;;;13.47;5.10;;;;;;;;;;5009754;28;20217;-73
2020/12/20 09:10:27;;;;;;;12.27;4.73;;;;;;;;;;5015513;28;20186;-74
2020/12/20 09:12:54;;;;;;;14.70;4.63;;;;;;;;;;5013602;28;20363;-73
2020/12/20 09:15:22;;;;;;;15.77;4.67;;;;;;;;;;5026515;28;20618;-73
2020/12/20 09:17:50;;;;;;;13.63;4.80;;;;;;;;;;5011534;28;20220;-73
2020/12/20 09:20:18;;;;;;;14.05;4.72;;;;;;;;;;5021712;28;20273;-74
2020/12/20 09:22:46;;;;;;;9.98;4.35;;;;;;;;;;5008415;28;20198;-73
2020/12/20 09:25:14;;;;;;;11.32;4.25;;;;;;;;;;5018721;28;20720;-73
2020/12/20 09:27:51;;;;;;;11.20;4.17;;;;;;;;;;5010197;28;20190;-73
2020/12/20 09:30:16;;;;;;;14.20;3.78;;;;;;;;;;5015274;28;20197;-73
2020/12/20 09:32:42;;;;;;;11.02;4.07;;;;;;;;;;5007888;28;20272;-72
2020/12/20 09:35:08;;;;;;;11.43;3.70;;;;;;;;;;5022668;28;20721;-73
2020/12/20 09:37:41;;;;;;;12.47;3.60;;;;;;;;;;5017478;28;20786;-73
2020/12/20 09:40:08;;;;;;;11.50;4.20;;;;;;;;;;5015068;28;20197;-77
2020/12/20 09:42:40;;;;;;;10.57;3.83;;;;;;;;;;5017875;28;20278;-72
2020/12/20 09:45:07;;;;;;;12.35;3.45;;;;;;;;;;5003745;28;20218;-73
2020/12/20 09:47:43;;;;;;;12.77;4.20;;;;;;;;;;5015818;28;20651;-72
2020/12/20 09:50:10;;;;;;;12.35;3.83;;;;;;;;;;5007533;28;20186;-73
2020/12/20 09:52:36;;;;;;;12.97;4.23;;;;;;;;;;5016821;28;20217;-73
2020/12/20 09:55:03;;;;;;;10.43;3.20;;;;;;;;;;5026666;28;20189;-73
2020/12/20 09:57:29;;;;;;;14.45;4.40;;;;;;;;;;5019190;28;20192;-74
2020/12/20 09:59:55;;;;;;;10.63;3.88;;;;;;;;;;5011219;28;20591;-73
2020/12/20 10:02:20;;;;;;;15.73;3.78;;;;;;;;;;5018910;28;20201;-72
2020/12/20 10:04:45;;;;;;;11.63;3.70;;;;;;;;;;5009672;28;20204;-72
2020/12/20 10:07:11;;;;;;;10.97;3.97;;;;;;;;;;5018882;28;20214;-72
2020/12/20 10:09:36;;;;;;;12.27;3.70;;;;;;;;;;5011912;28;20196;-72
2020/12/20 10:12:01;;;;;;;12.43;3.87;;;;;;;;;;5017432;28;20290;-72
2020/12/20 10:14:27;;;;;;;14.60;3.80;;;;;;;;;;5012695;28;20262;-74
2020/12/20 10:16:53;;;;;;;10.15;3.50;;;;;;;;;;5006479;28;20190;-73
2020/12/20 10:19:19;;;;;;;12.45;3.83;;;;;;;;;;5019264;28;20518;-73
2020/12/20 10:21:51;;;;;;;11.00;3.80;;;;;;;;;;5003886;28;20216;-73
2020/12/20 10:24:18;;;;;;;15.13;4.18;;;;;;;;;;5016875;28;20182;-73
2020/12/20 10:26:44;;;;;;;12.23;3.58;;;;;;;;;;5005919;28;20225;-73
2020/12/20 10:29:13;;;;;;;9.50;3.70;;;;;;;;;;5018597;28;20328;-73
2020/12/20 10:31:38;;;;;;;7.93;3.83;;;;;;;;;;5007693;28;20654;-72
2020/12/20 10:34:04;;;;;;;13.93;3.92;;;;;;;;;;5017117;28;20336;-72
2020/12/20 10:36:29;;;;;;;14.45;4.05;;;;;;;;;;5005545;28;20190;-73
2020/12/20 10:38:54;;;;;;;14.85;4.13;;;;;;;;;;5012140;28;20223;-73
2020/12/20 10:41:20;;;;;;;12.25;3.63;;;;;;;;;;5009801;28;20198;-73
2020/12/20 10:43:45;;;;;;;12.60;4.38;;;;;;;;;;5016480;28;20704;-73
2020/12/20 10:46:12;;;;;;;12.30;3.53;;;;;;;;;;5020209;28;20216;-71
2020/12/20 10:48:37;;;;;;;13.68;3.70;;;;;;;;;;5007930;28;20209;-73
2020/12/20 10:51:02;;;;;;;13.88;4.28;;;;;;;;;;5020906;28;20178;-74
2020/12/20 10:53:28;;;;;;;10.80;3.40;;;;;;;;;;5009758;28;20288;-73
2020/12/20 10:55:53;;;;;;;15.10;4.45;;;;;;;;;;5024792;28;20201;-73
2020/12/20 10:58:18;;;;;;;13.98;4.07;;;;;;;;;;5025481;28;20284;-73
2020/12/20 11:00:44;;;;;;;14.55;4.00;;;;;;;;;;5019100;28;20191;-74
2020/12/20 11:03:09;;;;;;;13.23;4.00;;;;;;;;;;5008350;28;20216;-74
2020/12/20 11:05:34;;;;;;;12.15;3.63;;;;;;;;;;5020084;28;20336;-73
2020/12/20 11:08:00;;;;;;;10.98;3.60;;;;;;;;;;5008508;28;20217;-73
2020/12/20 11:10:26;;;;;;;16.90;4.00;;;;;;;;;;5025376;28;20182;-74
2020/12/20 11:12:51;;;;;;;13.63;3.80;;;;;;;;;;5021956;28;20217;-73
2020/12/20 11:15:16;;;;;;;7.93;3.30;;;;;;;;;;5021522;28;20189;-73
2020/12/20 11:17:41;;;;;;;13.10;3.22;;;;;;;;;;5015087;28;20189;-74
2020/12/20 11:20:07;;;;;;;12.30;3.42;;;;;;;;;;5011984;28;20186;-74
2020/12/20 11:22:32;;;;;;;15.18;3.60;;;;;;;;;;5020545;28;20224;-74
2020/12/20 11:24:57;;;;;;;18.02;4.07;;;;;;;;;;5015315;28;20739;-73
2020/12/20 11:27:23;;;;;;;7.70;3.00;;;;;;;;;;5017408;28;20198;-73
2020/12/20 11:29:48;;;;;;;13.63;3.83;;;;;;;;;;5014573;28;20190;-72
2020/12/20 11:32:13;;;;;;;16.80;3.67;;;;;;;;;;5019534;28;20208;-73
2020/12/20 11:34:39;;;;;;;14.45;3.78;;;;;;;;;;5009235;28;20231;-74
2020/12/20 11:37:04;;;;;;;15.43;3.58;;;;;;;;;;5021694;28;20206;-73
2020/12/20 11:39:29;;;;;;;11.82;3.63;;;;;;;;;;5006887;28;21614;-73
2020/12/20 11:41:54;;;;;;;12.40;3.92;;;;;;;;;;5011772;28;20298;-73
2020/12/20 11:44:21;;;;;;;15.93;3.60;;;;;;;;;;5017298;28;20179;-72
2020/12/20 11:46:46;;;;;;;9.75;3.58;;;;;;;;;;5010761;28;20182;-72
2020/12/20 11:49:11;;;;;;;15.23;3.67;;;;;;;;;;5020480;28;20187;-73
2020/12/20 11:51:37;;;;;;;18.48;3.92;;;;;;;;;;5013513;28;20679;-73
2020/12/20 11:54:02;;;;;;;10.35;3.40;;;;;;;;;;5024253;28;20667;-72
2020/12/20 11:56:27;;;;;;;10.65;3.60;;;;;;;;;;5008892;28;20193;-72
2020/12/20 11:58:53;;;;;;;12.48;3.58;;;;;;;;;;5020841;28;20214;-72
2020/12/20 12:01:23;;;;;;;14.40;3.70;;;;;;;;;;5014574;28;20186;-73
2020/12/20 12:03:50;;;;;;;15.23;3.75;;;;;;;;;;5027235;28;20186;-72
2020/12/20 12:06:15;;;;;;;15.15;3.20;;;;;;;;;;5014035;28;20213;-73
2020/12/20 12:08:41;;;;;;;11.13;3.63;;;;;;;;;;5017292;28;20194;-72
2020/12/20 12:11:06;;;;;;;15.02;3.90;;;;;;;;;;5009776;28;20217;-72
2020/12/20 12:13:32;;;;;;;11.82;3.65;;;;;;;;;;5027322;28;20562;-73
2020/12/20 12:15:57;;;;;;;17.83;3.65;;;;;;;;;;5011825;28;20198;-72
2020/12/20 12:18:22;;;;;;;17.00;3.33;;;;;;;;;;5008109;28;20194;-72
2020/12/20 12:20:48;;;;;;;13.80;3.90;;;;;;;;;;5026145;28;20240;-72
2020/12/20 12:23:13;;;;;;;11.27;3.85;;;;;;;;;;5010730;28;20187;-72
2020/12/20 12:25:38;;;;;;;14.30;3.50;;;;;;;;;;5026047;28;20264;-73
2020/12/20 12:28:04;;;;;;;14.82;3.65;;;;;;;;;;5002737;28;20194;-72
2020/12/20 12:30:29;;;;;;;12.18;4.00;;;;;;;;;;5006583;28;20186;-72
2020/12/20 12:32:54;;;;;;;12.52;3.78;;;;;;;;;;5010432;28;20202;-72
2020/12/20 12:35:21;;;;;;;16.00;3.97;;;;;;;;;;5022099;28;20729;-73
2020/12/20 12:37:47;;;;;;;14.13;3.08;;;;;;;;;;5014881;28;20224;-72
2020/12/20 12:40:13;;;;;;;16.00;3.47;;;;;;;;;;5016360;28;20604;-73
2020/12/20 12:42:42;;;;;;;19.30;3.78;;;;;;;;;;5007688;28;20214;-73
2020/12/20 12:45:08;;;;;;;19.83;4.95;;;;;;;;;;5019798;28;20280;-72
2020/12/20 12:47:33;;;;;;;16.63;4.10;;;;;;;;;;5024520;28;20657;-72
2020/12/20 12:49:59;;;;;;;11.07;3.42;;;;;;;;;;5016439;28;20216;-72
2020/12/20 12:52:25;;;;;;;14.90;3.65;;;;;;;;;;5022768;28;20186;-72
2020/12/20 12:54:50;;;;;;;15.80;3.70;;;;;;;;;;5014427;28;20186;-74
2020/12/20 12:57:16;;;;;;;11.30;3.85;;;;;;;;;;5025487;28;20217;-74
2020/12/20 12:59:42;;;;;;;10.95;3.53;;;;;;;;;;5011321;28;20201;-74
2020/12/20 13:02:07;;;;;;;15.85;3.78;;;;;;;;;;5022322;28;20716;-73
2020/12/20 13:04:34;;;;;;;19.95;4.32;;;;;;;;;;5017924;28;20191;-72
2020/12/20 13:07:00;;;;;;;20.92;3.72;;;;;;;;;;5017098;28;20263;-72
2020/12/20 13:09:25;;;;;;;12.95;3.67;;;;;;;;;;5011903;28;20193;-71
2020/12/20 13:11:50;;;;;;;15.60;4.10;;;;;;;;;;5023633;28;20289;-71
2020/12/20 13:14:16;;;;;;;17.17;3.65;;;;;;;;;;5015931;28;20705;-72
2020/12/20 13:16:48;;;;;;;25.23;4.22;;;;;;;;;;5024919;28;20190;-72
2020/12/20 13:19:13;;;;;;;24.75;5.65;;;;;;;;;;5018095;28;20205;-71
2020/12/20 13:21:38;;;;;;;18.83;3.80;;;;;;;;;;5019252;28;20190;-72
2020/12/20 13:24:04;;;;;;;16.25;4.03;;;;;;;;;;5025053;28;20208;-73
2020/12/20 13:26:29;;;;;;;18.95;3.78;;;;;;;;;;5018271;28;20489;-72
2020/12/20 13:28:55;;;;;;;20.85;4.47;;;;;;;;;;5024409;28;20167;-71
2020/12/20 13:31:21;;;;;;;13.55;3.78;;;;;;;;;;5013440;28;20710;-73
2020/12/20 13:33:50;;;;;;;18.08;3.70;;;;;;;;;;5039982;28;20202;-73
2020/12/20 13:36:16;;;;;;;20.95;4.05;;;;;;;;;;5031123;28;20326;-73
2020/12/20 13:38:41;;;;;;;18.60;4.15;;;;;;;;;;5022610;28;20193;-73
2020/12/20 13:41:07;;;;;;;13.27;4.32;;;;;;;;;;5015774;28;20189;-73
2020/12/20 13:43:33;;;;;;;18.83;4.32;;;;;;;;;;5036343;28;20178;-73
2020/12/20 13:45:59;;;;;;;16.23;3.75;;;;;;;;;;5012686;28;20190;-73
2020/12/20 13:48:24;;;;;;;16.65;4.00;;;;;;;;;;5024187;28;20185;-73
2020/12/20 13:50:50;;;;;;;19.50;4.20;;;;;;;;;;5010769;28;20199;-72
2020/12/20 13:53:16;;;;;;;16.35;3.67;;;;;;;;;;5015996;28;20217;-73
2020/12/20 13:55:42;;;;;;;19.88;4.75;;;;;;;;;;5021728;28;20197;-73
2020/12/20 13:58:07;;;;;;;20.75;4.22;;;;;;;;;;5015203;28;20190;-73
2020/12/20 14:00:35;;;;;;;20.75;4.47;;;;;;;;;;5024893;28;20185;-73
2020/12/20 14:03:01;;;;;;;13.88;3.95;;;;;;;;;;5026340;28;20194;-74
2020/12/20 14:05:26;;;;;;;17.23;3.50;;;;;;;;;;5024313;28;20193;-73
2020/12/20 14:07:51;;;;;;;17.63;3.80;;;;;;;;;;5012679;28;20212;-73
2020/12/20 14:10:16;;;;;;;18.63;3.45;;;;;;;;;;5018790;28;21502;-73
2020/12/20 14:12:42;;;;;;;14.63;3.80;;;;;;;;;;5005888;28;20199;-72
2020/12/20 14:15:07;;;;;;;15.57;3.53;;;;;;;;;;5022488;28;20336;-72
2020/12/20 14:17:36;;;;;;;20.92;4.63;;;;;;;;;;5015762;28;20298;-73
2020/12/20 14:20:07;;;;;;;23.20;3.88;;;;;;;;;;5021426;28;20591;-73
2020/12/20 14:22:32;;;;;;;13.98;3.58;;;;;;;;;;5017135;28;20197;-73
2020/12/20 14:24:57;;;;;;;15.20;4.45;;;;;;;;;;5020611;28;20182;-73
2020/12/20 14:27:24;;;;;;;16.45;4.15;;;;;;;;;;5022325;28;20186;-73
2020/12/20 14:29:50;;;;;;;25.80;4.22;;;;;;;;;;5016941;28;20221;-72
2020/12/20 14:32:15;;;;;;;24.50;3.67;;;;;;;;;;5012383;28;20213;-73